Silver Wind — C6FG2 — position and weather

sailwx.info

Track history (hours):
 
Tides and Currents Weather Stations Pressure Air Temp Water Temp Dewpoint Dewpoint Depression Visibility Wind Speed Wind Dir Waves Ship Positions

Silver Wind

Operator: V Ships Leisure

Last reported at 2019-Oct-14 20:57 UTC. Time now 2019-Oct-16 05:39 UTC.
Position N 44°26' W 063°29'.

Length 156 m; draft 5.7 m.

Type: Passenger vessel. MMSI: 308814000.

Date/timePositionNaut miles runAvg speedWind from/ knotsBaromVisibWave heightAir tempDewpointWater temp
2019-Oct-14 20:57N 44°26' W 063°29'715.2
2019-Oct-14 20:30N 44°32' W 063°31'612.5
2019-Oct-14 20:00N 44°38' W 063°34'0 0.4
2019-Oct-14 19:30N 44°38' W 063°34'0 0.0
2019-Oct-14 19:00N 44°38' W 063°34'0 0.0
2019-Oct-14 18:30N 44°38' W 063°34'0 0.0
2019-Oct-14 18:00N 44°38' W 063°34'0 0.0
2019-Oct-14 17:30N 44°38' W 063°34'0 0.0
2019-Oct-14 17:00N 44°38' W 063°34'0 0.0
2019-Oct-14 16:30N 44°38' W 063°34'0 0.0
2019-Oct-14 16:00N 44°38' W 063°34'0 0.0
2019-Oct-14 15:30N 44°38' W 063°34'0 0.0
2019-Oct-14 15:00N 44°38' W 063°34'0 0.0
2019-Oct-14 14:30N 44°38' W 063°34'0 0.0
2019-Oct-14 14:00N 44°38' W 063°34'0 0.0
2019-Oct-14 13:30N 44°38' W 063°34'0 0.0
2019-Oct-14 13:00N 44°38' W 063°34'0 0.0
2019-Oct-14 12:30N 44°38' W 063°34'0 0.0
2019-Oct-14 12:00N 44°38' W 063°34'0 0.0
2019-Oct-14 11:30N 44°38' W 063°34'0 0.2
2019-Oct-14 11:00N 44°38' W 063°34'1 2.8
2019-Oct-14 10:30N 44°37' W 063°33'612.0
2019-Oct-14 10:00N 44°31' W 063°30'5 9.7
2019-Oct-14 09:30N 44°28' W 063°26'5 9.9
2019-Oct-14 08:57N 44°28' W 063°18'4 9.7
2019-Oct-14 08:30N 44°28' W 063°12'5 9.8
2019-Oct-14 08:00N 44°30' W 063°06'  
2019-Oct-09 03:27N 46°03' W 073°06'511.1
2019-Oct-09 03:00N 45°60' W 073°11'612.3
2019-Oct-09 02:30N 45°54' W 073°13'612.5
2019-Oct-09 02:00N 45°49' W 073°19'611.7
2019-Oct-09 01:30N 45°45' W 073°24'612.3
2019-Oct-09 01:00N 45°39' W 073°28'5 9.4
2019-Oct-09 00:30N 45°35' W 073°30'3 6.5
2019-Oct-09 00:01N 45°32' W 073°33'0 0.0
2019-Oct-08 23:28N 45°32' W 073°33'0 0.0
2019-Oct-08 22:58N 45°32' W 073°33'0 0.0
2019-Oct-08 22:28N 45°32' W 073°33'0 0.0
2019-Oct-08 21:58N 45°32' W 073°33'0 0.0
2019-Oct-08 21:28N 45°32' W 073°33'0 0.0
2019-Oct-08 20:58N 45°32' W 073°33'0 0.0
2019-Oct-08 20:28N 45°32' W 073°33'0 0.0
2019-Oct-08 19:58N 45°32' W 073°33'0 0.0
2019-Oct-08 19:28N 45°32' W 073°33'0 0.0
2019-Oct-08 18:58N 45°32' W 073°33'0 0.0
2019-Oct-08 18:28N 45°32' W 073°33'0 0.0
2019-Oct-08 17:58N 45°32' W 073°33'0 0.0
2019-Oct-08 17:28N 45°32' W 073°33'0 0.0
2019-Oct-08 16:58N 45°32' W 073°33'0 0.0
2019-Oct-08 16:28N 45°32' W 073°33'0 0.0
2019-Oct-08 15:58N 45°32' W 073°33'0 0.0
2019-Oct-08 15:28N 45°32' W 073°33'0 0.0
2019-Oct-08 14:58N 45°32' W 073°33'0 0.0
2019-Oct-08 14:28N 45°32' W 073°33'0 0.0
2019-Oct-08 13:58N 45°32' W 073°33'0 0.0
2019-Oct-08 13:28N 45°32' W 073°33'0 0.0
2019-Oct-08 12:58N 45°32' W 073°33'0 0.0
2019-Oct-08 12:28N 45°32' W 073°33'0 0.0
2019-Oct-08 11:58N 45°32' W 073°33'0 0.0
2019-Oct-08 11:30N 45°32' W 073°33'0 0.5
2019-Oct-08 11:00N 45°32' W 073°32'4 7.9
2019-Oct-08 10:30N 45°36' W 073°30'5 9.3
2019-Oct-08 10:00N 45°40' W 073°28'510.1
2019-Oct-08 09:30N 45°45' W 073°24'510.4
2019-Oct-08 09:00N 45°48' W 073°19'5 9.9
2019-Oct-08 08:30N 45°52' W 073°15'5 9.3
2019-Oct-08 08:00N 45°57' W 073°13'5 9.5
2019-Oct-08 07:30N 46°01' W 073°10'5 9.4
2019-Oct-08 06:59N 46°04' W 073°04'  
2019-Oct-04 22:41N 49°11' W 058°24'1015.4
2019-Oct-04 22:04N 49°05' W 058°13'115.4
2019-Oct-04 22:00N 49°05' W 058°12'713.8
2019-Oct-04 21:30N 48°59' W 058°05'611.1
2019-Oct-04 21:00N 48°58' W 057°57'  
Track history (hours):
 
Tides and Currents Weather Stations Pressure Air Temp Water Temp Dewpoint Dewpoint Depression Visibility Wind Speed Wind Dir Waves Ship Positions

Silver Wind

Operator: V Ships Leisure

Last reported at 2019-Oct-14 20:57 UTC. Time now 2019-Oct-16 05:39 UTC.
Position N 44°26' W 063°29'.

Length 156 m; draft 5.7 m.

Type: Passenger vessel. MMSI: 308814000.

Date/timePositionNaut miles runAvg speedWind from/ knotsBaromVisibWave heightAir tempDewpointWater temp
2019-Oct-14 20:57N 44°26' W 063°29'715.2
2019-Oct-14 20:30N 44°32' W 063°31'612.5
2019-Oct-14 20:00N 44°38' W 063°34'0 0.4
2019-Oct-14 19:30N 44°38' W 063°34'0 0.0
2019-Oct-14 19:00N 44°38' W 063°34'0 0.0
2019-Oct-14 18:30N 44°38' W 063°34'0 0.0
2019-Oct-14 18:00N 44°38' W 063°34'0 0.0
2019-Oct-14 17:30N 44°38' W 063°34'0 0.0
2019-Oct-14 17:00N 44°38' W 063°34'0 0.0
2019-Oct-14 16:30N 44°38' W 063°34'0 0.0
2019-Oct-14 16:00N 44°38' W 063°34'0 0.0
2019-Oct-14 15:30N 44°38' W 063°34'0 0.0
2019-Oct-14 15:00N 44°38' W 063°34'0 0.0
2019-Oct-14 14:30N 44°38' W 063°34'0 0.0
2019-Oct-14 14:00N 44°38' W 063°34'0 0.0
2019-Oct-14 13:30N 44°38' W 063°34'0 0.0
2019-Oct-14 13:00N 44°38' W 063°34'0 0.0
2019-Oct-14 12:30N 44°38' W 063°34'0 0.0
2019-Oct-14 12:00N 44°38' W 063°34'0 0.0
2019-Oct-14 11:30N 44°38' W 063°34'0 0.2
2019-Oct-14 11:00N 44°38' W 063°34'1 2.8
2019-Oct-14 10:30N 44°37' W 063°33'612.0
2019-Oct-14 10:00N 44°31' W 063°30'5 9.7
2019-Oct-14 09:30N 44°28' W 063°26'5 9.9
2019-Oct-14 08:57N 44°28' W 063°18'4 9.7
2019-Oct-14 08:30N 44°28' W 063°12'5 9.8
2019-Oct-14 08:00N 44°30' W 063°06'  
2019-Oct-09 03:27N 46°03' W 073°06'511.1
2019-Oct-09 03:00N 45°60' W 073°11'612.3
2019-Oct-09 02:30N 45°54' W 073°13'612.5
2019-Oct-09 02:00N 45°49' W 073°19'611.7
2019-Oct-09 01:30N 45°45' W 073°24'612.3
2019-Oct-09 01:00N 45°39' W 073°28'5 9.4
2019-Oct-09 00:30N 45°35' W 073°30'3 6.5
2019-Oct-09 00:01N 45°32' W 073°33'0 0.0
2019-Oct-08 23:28N 45°32' W 073°33'0 0.0
2019-Oct-08 22:58N 45°32' W 073°33'0 0.0
2019-Oct-08 22:28N 45°32' W 073°33'0 0.0
2019-Oct-08 21:58N 45°32' W 073°33'0 0.0
2019-Oct-08 21:28N 45°32' W 073°33'0 0.0
2019-Oct-08 20:58N 45°32' W 073°33'0 0.0
2019-Oct-08 20:28N 45°32' W 073°33'0 0.0
2019-Oct-08 19:58N 45°32' W 073°33'0 0.0
2019-Oct-08 19:28N 45°32' W 073°33'0 0.0
2019-Oct-08 18:58N 45°32' W 073°33'0 0.0
2019-Oct-08 18:28N 45°32' W 073°33'0 0.0
2019-Oct-08 17:58N 45°32' W 073°33'0 0.0
2019-Oct-08 17:28N 45°32' W 073°33'0 0.0
2019-Oct-08 16:58N 45°32' W 073°33'0 0.0
2019-Oct-08 16:28N 45°32' W 073°33'0 0.0
2019-Oct-08 15:58N 45°32' W 073°33'0 0.0
2019-Oct-08 15:28N 45°32' W 073°33'0 0.0
2019-Oct-08 14:58N 45°32' W 073°33'0 0.0
2019-Oct-08 14:28N 45°32' W 073°33'0 0.0
2019-Oct-08 13:58N 45°32' W 073°33'0 0.0
2019-Oct-08 13:28N 45°32' W 073°33'0 0.0
2019-Oct-08 12:58N 45°32' W 073°33'0 0.0
2019-Oct-08 12:28N 45°32' W 073°33'0 0.0
2019-Oct-08 11:58N 45°32' W 073°33'0 0.0
2019-Oct-08 11:30N 45°32' W 073°33'0 0.5
2019-Oct-08 11:00N 45°32' W 073°32'4 7.9
2019-Oct-08 10:30N 45°36' W 073°30'5 9.3
2019-Oct-08 10:00N 45°40' W 073°28'510.1
2019-Oct-08 09:30N 45°45' W 073°24'510.4
2019-Oct-08 09:00N 45°48' W 073°19'5 9.9
2019-Oct-08 08:30N 45°52' W 073°15'5 9.3
2019-Oct-08 08:00N 45°57' W 073°13'5 9.5
2019-Oct-08 07:30N 46°01' W 073°10'5 9.4
2019-Oct-08 06:59N 46°04' W 073°04'  
2019-Oct-04 22:41N 49°11' W 058°24'1015.4
2019-Oct-04 22:04N 49°05' W 058°13'115.4
2019-Oct-04 22:00N 49°05' W 058°12'713.8
2019-Oct-04 21:30N 48°59' W 058°05'611.1
2019-Oct-04 21:00N 48°58' W 057°57'  

Dump ship's entire track history